createdAt,value
2023-04-21T00:00:56.405Z,100431.31
2023-04-21T00:03:26.701Z,100434.41
2023-04-21T00:05:58.942Z,100424.22
2023-04-21T00:08:27.943Z,100422.72
2023-04-21T00:10:56.453Z,100411.16
2023-04-21T00:13:26.358Z,100420.94
2023-04-21T00:15:55.142Z,100417.88
2023-04-21T00:18:25.957Z,100415.34
2023-04-21T00:20:54.546Z,100408.53
2023-04-21T00:23:23.222Z,100410.63
2023-04-21T00:25:52.690Z,100404.09
2023-04-21T00:28:21.199Z,100407.03
2023-04-21T00:30:51.180Z,100398.13
2023-04-21T00:33:19.645Z,100407.31
2023-04-21T00:35:48.179Z,100412.03
2023-04-21T00:38:16.708Z,100409.69
2023-04-21T00:40:45.137Z,100414.28
2023-04-21T00:43:14.120Z,100410.25
2023-04-21T00:45:42.600Z,100408.72
2023-04-21T00:48:12.840Z,100403.03
2023-04-21T00:50:41.633Z,100403.31
2023-04-21T00:53:11.355Z,100408.88
2023-04-21T00:55:40.108Z,100412.91
2023-04-21T00:58:08.776Z,100414.16
2023-04-21T01:00:38.121Z,100407.47
2023-04-21T01:03:08.367Z,100407.88
2023-04-21T01:05:38.365Z,100395.09
2023-04-21T01:08:08.194Z,100408.84
2023-04-21T01:10:36.624Z,100411.78
2023-04-21T01:13:05.026Z,100410.09
2023-04-21T01:15:34.071Z,100404.25
2023-04-21T01:18:02.750Z,100413.28
2023-04-21T01:20:31.250Z,100404.78
2023-04-21T01:23:01.656Z,100402.28
2023-04-21T01:25:30.546Z,100394.19
2023-04-21T01:27:59.062Z,100410.06
2023-04-21T01:30:27.585Z,100404.22
2023-04-21T01:32:58.822Z,100397.81
2023-04-21T01:35:27.264Z,100404.88
2023-04-21T01:37:55.814Z,100404.19
2023-04-21T01:40:25.670Z,100403.06
2023-04-21T01:42:54.132Z,100403.34
2023-04-21T01:45:22.535Z,100399.03
2023-04-21T01:47:50.976Z,100401.81
2023-04-21T01:50:19.601Z,100402.22
2023-04-21T01:52:48.182Z,100409.31
2023-04-21T01:55:16.969Z,100400.81
2023-04-21T01:57:46.914Z,100407.78
2023-04-21T02:00:16.256Z,100398.44
2023-04-21T02:02:44.964Z,100404.69
2023-04-21T02:05:13.616Z,100408.31
2023-04-21T02:07:42.122Z,100389.38
2023-04-21T02:10:11.488Z,100397.47
2023-04-21T02:12:40.164Z,100399.94
2023-04-21T02:15:11.269Z,100400.94
2023-04-21T02:17:40.089Z,100395.78
2023-04-21T02:20:10.774Z,100399.41
2023-04-21T02:22:39.329Z,100396.03
2023-04-21T02:25:08.598Z,100400.59
2023-04-21T02:27:37.030Z,100401.72
2023-04-21T02:30:06.734Z,100402.81
2023-04-21T02:32:36.860Z,100408.34
2023-04-21T02:35:06.805Z,100417.59
2023-04-21T02:37:36.178Z,100417.28
2023-04-21T02:40:06.820Z,100421.72
2023-04-21T02:42:35.663Z,100425.34
2023-04-21T02:45:04.295Z,100423.66
2023-04-21T02:47:32.862Z,100434.22
2023-04-21T02:50:03.337Z,100421.41
2023-04-21T02:52:31.820Z,100422.81
2023-04-21T02:55:00.304Z,100421.28
2023-04-21T02:57:28.780Z,100417.25
2023-04-21T02:59:57.218Z,100417.94
2023-04-21T03:02:26.075Z,100419.88
2023-04-21T03:04:54.915Z,100418.06
2023-04-21T03:07:25.001Z,100421.66
2023-04-21T03:09:53.695Z,100428.63
2023-04-21T03:12:22.405Z,100426.38
2023-04-21T03:14:51.082Z,100432.50
2023-04-21T03:17:19.855Z,100437.06
2023-04-21T03:19:48.698Z,100434.69
2023-04-21T03:22:17.462Z,100424.28
2023-04-21T03:24:47.382Z,100428.84
2023-04-21T03:27:16.103Z,100427.44
2023-04-21T03:29:44.589Z,100436.31
2023-04-21T03:32:13.155Z,100435.72
2023-04-21T03:34:42.167Z,100436.81
2023-04-21T03:37:10.565Z,100435.16
2023-04-21T03:39:39.018Z,100434.56
2023-04-21T03:42:08.932Z,100432.06
2023-04-21T03:44:37.418Z,100432.31
2023-04-21T03:47:05.921Z,100433.28
2023-04-21T03:49:35.962Z,100437.00
2023-04-21T03:52:04.455Z,100412.47
2023-04-21T03:54:33.014Z,100440.00
2023-04-21T03:57:01.377Z,100442.91
2023-04-21T03:59:31.614Z,100424.25
2023-04-21T04:02:00.288Z,100439.97
2023-04-21T04:04:29.221Z,100443.66
2023-04-21T04:06:58.039Z,100439.88
2023-04-21T04:09:26.458Z,100437.47
2023-04-21T04:11:54.974Z,100443.97
2023-04-21T04:14:23.581Z,100447.78
2023-04-21T04:16:53.457Z,100455.94
2023-04-21T04:19:22.113Z,100458.59
2023-04-21T04:21:50.736Z,100460.50
2023-04-21T04:24:19.647Z,100453.56
2023-04-21T04:26:48.330Z,100458.84
2023-04-21T04:29:18.109Z,100468.41
2023-04-21T04:31:46.978Z,100456.91
2023-04-21T04:34:17.836Z,100459.56
2023-04-21T04:36:46.323Z,100441.25
2023-04-21T04:39:14.883Z,100450.56
2023-04-21T04:41:43.473Z,100459.31
2023-04-21T04:44:11.983Z,100458.34
2023-04-21T04:46:40.956Z,100459.19
2023-04-21T04:49:09.858Z,100452.84
2023-04-21T04:51:39.848Z,100452.00
2023-04-21T04:54:08.319Z,100451.13
2023-04-21T04:56:36.916Z,100450.09
2023-04-21T04:59:05.961Z,100454.97
2023-04-21T05:01:34.518Z,100459.28
2023-04-21T05:04:03.141Z,100460.72
2023-04-21T05:06:32.902Z,100458.53
2023-04-21T05:09:02.946Z,100460.81
2023-04-21T05:11:31.459Z,100454.41
2023-04-21T05:14:00.010Z,100442.19
2023-04-21T05:16:28.738Z,100451.97
2023-04-21T05:18:57.289Z,100457.75
2023-04-21T05:21:27.911Z,100453.88
2023-04-21T05:23:57.058Z,100457.09
2023-04-21T05:26:28.091Z,100455.75
2023-04-21T05:28:57.593Z,100463.84
2023-04-21T05:31:26.910Z,100455.28
2023-04-21T05:33:55.622Z,100456.16
2023-04-21T05:36:25.179Z,100460.56
2023-04-21T05:38:55.318Z,100457.38
2023-04-21T05:41:24.260Z,100461.28
2023-04-21T05:43:54.703Z,100458.00
2023-04-21T05:46:23.348Z,100455.53
2023-04-21T05:48:51.877Z,100455.00
2023-04-21T05:51:20.607Z,100453.66
2023-04-21T05:53:49.084Z,100469.78
2023-04-21T05:56:17.792Z,100469.41
2023-04-21T05:58:51.584Z,100456.19
2023-04-21T06:01:21.639Z,100457.34
2023-04-21T06:03:52.589Z,100462.66
2023-04-21T06:06:21.764Z,100460.59
2023-04-21T06:08:50.472Z,100466.59
2023-04-21T06:11:18.914Z,100467.84
2023-04-21T06:13:48.082Z,100462.44
2023-04-21T06:16:16.496Z,100470.53
2023-04-21T06:18:49.431Z,100447.31
2023-04-21T06:21:17.981Z,100465.66
2023-04-21T06:23:46.408Z,100466.66
2023-04-21T06:26:14.768Z,100465.41
2023-04-21T06:28:43.268Z,100457.59
2023-04-21T06:31:15.652Z,100443.50
2023-04-21T06:33:45.678Z,100451.84
2023-04-21T06:36:15.108Z,100453.75
2023-04-21T06:38:44.748Z,100459.28
2023-04-21T06:41:13.176Z,100461.81
2023-04-21T06:43:41.776Z,100458.00
2023-04-21T06:46:10.218Z,100461.13
2023-04-21T06:48:38.659Z,100455.66
2023-04-21T06:51:08.562Z,100465.00
2023-04-21T06:53:37.816Z,100443.34
2023-04-21T06:56:06.506Z,100461.75
2023-04-21T06:58:35.238Z,100456.41
2023-04-21T07:01:04.004Z,100454.03
2023-04-21T07:03:32.717Z,100459.59
2023-04-21T07:06:01.252Z,100456.34
2023-04-21T07:08:31.282Z,100455.81
2023-04-21T07:10:59.950Z,100454.81
2023-04-21T07:13:28.784Z,100460.03
2023-04-21T07:15:57.809Z,100455.63
2023-04-21T07:18:26.507Z,100454.66
2023-04-21T07:20:55.502Z,100454.03
2023-04-21T07:23:23.956Z,100451.19
2023-04-21T07:25:54.006Z,100453.91
2023-04-21T07:28:22.530Z,100452.66
2023-04-21T07:30:51.153Z,100465.38
2023-04-21T07:33:19.775Z,100445.50
2023-04-21T07:35:48.268Z,100462.25
2023-04-21T07:38:16.911Z,100454.69
2023-04-21T07:40:45.465Z,100453.50
2023-04-21T07:43:15.302Z,100456.56
2023-04-21T07:45:45.462Z,100453.75
2023-04-21T07:48:13.958Z,100451.78
2023-04-21T07:50:42.839Z,100446.13
2023-04-21T07:53:11.424Z,100443.53
2023-04-21T07:55:40.482Z,100452.53
2023-04-21T07:58:10.272Z,100452.53
2023-04-21T08:00:40.139Z,100449.88
2023-04-21T08:03:09.003Z,100451.06
2023-04-21T08:05:40.878Z,100454.53
2023-04-21T08:08:10.136Z,100450.19
2023-04-21T08:10:39.097Z,100445.38
2023-04-21T08:13:07.977Z,100444.84
2023-04-21T08:15:36.511Z,100449.19
2023-04-21T08:18:06.520Z,100454.31
2023-04-21T08:20:35.281Z,100457.16
2023-04-21T08:23:03.757Z,100450.13
2023-04-21T08:25:32.242Z,100445.53
2023-04-21T08:28:00.685Z,100450.72
2023-04-21T08:30:29.953Z,100455.00
2023-04-21T08:32:58.669Z,100440.69
2023-04-21T08:35:28.576Z,100443.50
2023-04-21T08:37:57.031Z,100445.41
2023-04-21T08:40:33.765Z,100440.50
2023-04-21T08:43:02.769Z,100444.91
2023-04-21T08:45:31.505Z,100438.31
2023-04-21T08:48:01.334Z,100428.38
2023-04-21T08:50:32.721Z,100440.66
2023-04-21T08:53:01.179Z,100442.19
2023-04-21T08:55:31.481Z,100436.34
2023-04-21T08:58:00.837Z,100426.03
2023-04-21T09:00:29.387Z,100435.91
2023-04-21T09:03:00.924Z,100438.56
2023-04-21T09:05:33.078Z,100430.06
2023-04-21T09:08:12.548Z,100433.75
2023-04-21T09:10:48.335Z,100431.56
2023-04-21T09:13:17.938Z,100421.91
2023-04-21T09:15:48.749Z,100422.94
2023-04-21T09:18:19.031Z,100422.47
2023-04-21T09:20:51.497Z,100409.13
2023-04-21T09:23:22.439Z,100408.03
2023-04-21T09:25:55.677Z,100415.59
2023-04-21T09:28:24.212Z,100406.41
2023-04-21T09:30:57.331Z,100410.22
2023-04-21T09:33:30.985Z,100412.13
2023-04-21T09:36:07.352Z,100408.25
2023-04-21T09:38:35.866Z,100412.78
2023-04-21T09:41:04.552Z,100406.84
2023-04-21T09:43:33.111Z,100406.53
2023-04-21T09:46:04.496Z,100408.47
2023-04-21T09:48:36.713Z,100406.47
2023-04-21T09:53:41.517Z,100387.75
2023-04-21T09:56:14.044Z,100398.34
2023-04-21T09:58:48.217Z,100385.50
2023-04-21T10:01:17.360Z,100395.69
2023-04-21T10:03:47.417Z,100388.66
2023-04-21T10:06:17.450Z,100381.19
2023-04-21T10:08:46.449Z,100377.50
2023-04-21T10:11:15.534Z,100380.38
2023-04-21T10:13:45.016Z,100377.88
2023-04-21T10:16:13.633Z,100375.78
2023-04-21T10:18:45.860Z,100365.81
2023-04-21T10:21:22.342Z,100368.88
2023-04-21T10:23:52.775Z,100376.13
2023-04-21T10:26:22.501Z,100366.81
2023-04-21T10:28:55.506Z,100369.13
2023-04-21T10:31:27.345Z,100374.78
2023-04-21T10:34:21.899Z,100377.84
2023-04-21T10:37:21.678Z,100365.00
2023-04-21T10:39:55.129Z,100368.31
2023-04-21T10:42:39.671Z,100356.31
2023-04-21T10:45:11.012Z,100362.16
2023-04-21T10:47:45.625Z,100361.34
2023-04-21T10:50:20.576Z,100356.56
2023-04-21T10:52:55.833Z,100352.44
2023-04-21T10:55:27.261Z,100350.56
2023-04-21T10:57:55.822Z,100352.03
2023-04-21T11:00:26.204Z,100346.22
2023-04-21T11:02:59.537Z,100341.69
2023-04-21T11:05:38.895Z,100329.47
2023-04-21T11:08:12.291Z,100343.53
2023-04-21T11:10:52.291Z,100337.94
2023-04-21T11:13:23.870Z,100332.69
2023-04-21T11:16:03.301Z,100335.19
2023-04-21T11:18:45.472Z,100324.44
2023-04-21T11:21:21.696Z,100329.84
2023-04-21T11:23:53.276Z,100327.34
2023-04-21T11:26:32.473Z,100323.28
2023-04-21T11:29:06.298Z,100325.53
2023-04-21T11:31:36.149Z,100325.00
2023-04-21T11:34:07.055Z,100310.75
2023-04-21T11:36:35.686Z,100314.13
2023-04-21T11:39:10.215Z,100314.59
2023-04-21T11:41:41.416Z,100307.38
2023-04-21T11:44:10.301Z,100302.22
2023-04-21T11:46:39.034Z,100308.41
2023-04-21T11:49:08.871Z,100299.53
2023-04-21T11:51:38.929Z,100302.69
2023-04-21T11:54:10.136Z,100310.88
2023-04-21T11:56:39.340Z,100301.41
2023-04-21T11:59:12.223Z,100306.84
2023-04-21T12:01:47.185Z,100307.19
2023-04-21T12:04:17.394Z,100305.09
2023-04-21T12:06:46.784Z,100298.47
2023-04-21T12:09:21.203Z,100293.53
2023-04-21T12:11:51.339Z,100294.88
2023-04-21T12:14:21.224Z,100288.53
2023-04-21T12:16:51.593Z,100292.50
2023-04-21T12:19:36.222Z,100286.00
2023-04-21T12:22:09.524Z,100290.44
2023-04-21T12:24:40.204Z,100281.47
2023-04-21T12:27:09.159Z,100281.38
2023-04-21T12:29:38.749Z,100274.25
2023-04-21T12:32:07.945Z,100281.09
2023-04-21T12:34:36.874Z,100277.03
2023-04-21T12:37:06.355Z,100280.94
2023-04-21T12:39:35.218Z,100281.19
2023-04-21T12:42:05.239Z,100280.97
2023-04-21T12:44:33.756Z,100269.97
2023-04-21T12:47:02.666Z,100274.50
2023-04-21T12:49:31.673Z,100261.97
2023-04-21T12:52:00.760Z,100260.81
2023-04-21T12:54:29.214Z,100268.03
2023-04-21T12:56:58.251Z,100259.94
2023-04-21T12:59:29.170Z,100269.88
2023-04-21T13:01:57.872Z,100271.72
2023-04-21T13:04:26.765Z,100261.38
2023-04-21T13:06:55.553Z,100266.22
2023-04-21T13:09:24.076Z,100255.50
2023-04-21T13:11:53.099Z,100256.44
2023-04-21T13:14:21.580Z,100262.19
2023-04-21T13:16:51.813Z,100251.47
2023-04-21T13:19:20.351Z,100249.91
2023-04-21T13:21:50.515Z,100239.00
2023-04-21T13:24:20.682Z,100247.94
2023-04-21T13:26:49.268Z,100242.16
2023-04-21T13:29:17.827Z,100240.81
2023-04-21T13:31:46.434Z,100238.19
2023-04-21T13:34:16.515Z,100222.97
2023-04-21T13:36:45.416Z,100233.66
2023-04-21T13:39:13.949Z,100230.81
2023-04-21T13:41:42.623Z,100226.47
2023-04-21T13:44:11.823Z,100223.72
2023-04-21T13:46:40.550Z,100225.03
2023-04-21T13:49:09.419Z,100226.72
2023-04-21T13:51:39.430Z,100212.88
2023-04-21T13:54:08.278Z,100213.00
2023-04-21T13:56:37.733Z,100208.72
2023-04-21T13:59:06.840Z,100204.56
2023-04-21T14:01:35.549Z,100201.53
2023-04-21T14:04:10.841Z,100209.66
2023-04-21T14:06:41.037Z,100191.53
2023-04-21T14:09:09.969Z,100196.13
2023-04-21T14:11:38.431Z,100193.09
2023-04-21T14:14:09.997Z,100189.53
2023-04-21T14:16:40.345Z,100182.94
2023-04-21T14:19:08.762Z,100192.13
2023-04-21T14:21:37.428Z,100186.94
2023-04-21T14:24:07.414Z,100183.00
2023-04-21T14:26:36.387Z,100182.63
2023-04-21T14:29:04.958Z,100179.00
2023-04-21T14:31:33.771Z,100177.94
2023-04-21T14:34:02.264Z,100174.31
2023-04-21T14:36:31.342Z,100180.84
2023-04-21T14:38:59.773Z,100170.97
2023-04-21T14:41:29.769Z,100167.47
2023-04-21T14:43:59.466Z,100167.00
2023-04-21T14:46:29.422Z,100166.97
2023-04-21T14:48:58.400Z,100169.19
2023-04-21T14:51:26.976Z,100163.31
2023-04-21T14:53:55.587Z,100162.00
2023-04-21T14:56:24.063Z,100171.44
2023-04-21T14:58:54.086Z,100157.84
2023-04-21T15:01:24.501Z,100170.22
2023-04-21T15:03:54.517Z,100168.94
2023-04-21T15:06:23.196Z,100168.13
2023-04-21T15:08:51.887Z,100168.59
2023-04-21T15:11:20.428Z,100162.75
2023-04-21T15:13:49.068Z,100154.41
2023-04-21T15:16:19.086Z,100159.88
2023-04-21T15:18:48.202Z,100145.06
2023-04-21T15:21:16.694Z,100159.06
2023-04-21T15:23:45.208Z,100146.69
2023-04-21T15:26:13.961Z,100151.66
2023-04-21T15:28:42.548Z,100151.66
2023-04-21T15:31:11.160Z,100147.22
2023-04-21T15:33:41.505Z,100144.88
2023-04-21T15:36:10.092Z,100137.94
2023-04-21T15:38:38.885Z,100135.13
2023-04-21T15:41:07.538Z,100131.56
2023-04-21T15:43:37.038Z,100139.78
2023-04-21T15:46:13.391Z,100135.13
2023-04-21T15:48:44.066Z,100133.00
2023-04-21T15:51:12.849Z,100120.72
2023-04-21T15:53:47.530Z,100129.88
2023-04-21T15:56:16.264Z,100135.44
2023-04-21T15:58:46.638Z,100131.41
2023-04-21T16:01:15.548Z,100129.31
2023-04-21T16:03:46.758Z,100127.09
2023-04-21T16:06:15.520Z,100117.97
2023-04-21T16:08:44.141Z,100113.97
2023-04-21T16:11:12.872Z,100117.66
2023-04-21T16:13:41.667Z,100121.53
2023-04-21T16:16:10.362Z,100115.88
2023-04-21T16:18:39.506Z,100117.41
2023-04-21T16:21:11.025Z,100105.63
2023-04-21T16:23:40.201Z,100103.81
2023-04-21T16:26:09.631Z,100109.19
2023-04-21T16:28:40.424Z,100109.56
2023-04-21T16:31:09.384Z,100100.06
2023-04-21T16:33:38.424Z,100117.31
2023-04-21T16:36:08.838Z,100097.00
2023-04-21T16:38:37.525Z,100108.19
2023-04-21T16:41:07.135Z,100100.31
2023-04-21T16:43:36.474Z,100104.63
2023-04-21T16:46:05.024Z,100108.44
2023-04-21T16:48:33.922Z,100100.22
2023-04-21T16:51:03.086Z,100103.81
2023-04-21T16:53:33.462Z,100101.31
2023-04-21T16:56:02.457Z,100103.25
2023-04-21T16:58:31.570Z,100102.59
2023-04-21T17:01:00.221Z,100108.78
2023-04-21T17:03:29.900Z,100097.59
2023-04-21T17:05:58.953Z,100095.91
2023-04-21T17:08:27.545Z,100090.16
2023-04-21T17:10:59.452Z,100093.16
2023-04-21T17:13:28.029Z,100092.25
2023-04-21T17:15:57.030Z,100082.19
2023-04-21T17:18:25.696Z,100086.38
2023-04-21T17:20:54.589Z,100087.28
2023-04-21T17:23:23.420Z,100082.25
2023-04-21T17:25:55.141Z,100082.09
2023-04-21T17:28:25.170Z,100080.28
2023-04-21T17:31:07.057Z,100090.91
2023-04-21T17:33:43.043Z,100081.59
2023-04-21T17:36:13.320Z,100074.84
2023-04-21T17:38:43.275Z,100089.63
2023-04-21T17:41:11.934Z,100083.91
2023-04-21T17:43:42.106Z,100087.91
2023-04-21T17:46:11.723Z,100080.97
2023-04-21T17:48:40.674Z,100087.84
2023-04-21T17:51:09.605Z,100080.72
2023-04-21T17:53:38.469Z,100084.09
2023-04-21T17:56:07.207Z,100093.28
2023-04-21T17:58:36.306Z,100086.31
2023-04-21T18:01:07.492Z,100088.38
2023-04-21T18:03:37.563Z,100090.66
2023-04-21T18:06:06.726Z,100089.63
2023-04-21T18:08:35.425Z,100103.47
2023-04-21T18:11:04.015Z,100105.94
2023-04-21T18:13:32.597Z,100099.28
2023-04-21T18:16:02.680Z,100101.94
2023-04-21T18:18:32.634Z,100095.72
2023-04-21T18:21:01.446Z,100112.22
2023-04-21T18:23:30.232Z,100096.50
2023-04-21T18:25:59.888Z,100112.53
2023-04-21T18:28:29.680Z,100091.03
2023-04-21T18:30:58.665Z,100107.97
2023-04-21T18:33:27.339Z,100108.38
2023-04-21T18:35:57.381Z,100104.25
2023-04-21T18:38:25.942Z,100118.25
2023-04-21T18:40:54.642Z,100112.66
2023-04-21T18:43:24.149Z,100116.53
2023-04-21T18:45:53.157Z,100118.97
2023-04-21T18:48:22.046Z,100122.41
2023-04-21T18:50:50.951Z,100113.75
2023-04-21T18:53:21.074Z,100117.59
2023-04-21T18:55:49.755Z,100120.44
2023-04-21T18:58:18.357Z,100117.09
2023-04-21T19:00:46.994Z,100111.50
2023-04-21T19:03:15.737Z,100119.91
2023-04-21T19:05:44.333Z,100120.28
2023-04-21T19:08:12.903Z,100114.91
2023-04-21T19:10:42.977Z,100119.38
2023-04-21T19:13:11.834Z,100117.09
2023-04-21T19:15:40.631Z,100120.16
2023-04-21T19:18:09.269Z,100124.25
2023-04-21T19:20:38.653Z,100123.41
2023-04-21T19:23:07.264Z,100125.44
2023-04-21T19:25:37.227Z,100103.13
2023-04-21T19:28:08.061Z,100122.47
2023-04-21T19:30:39.192Z,100110.25
2023-04-21T19:33:07.778Z,100118.66
2023-04-21T19:35:36.508Z,100116.09
2023-04-21T19:38:06.081Z,100113.16
2023-04-21T19:40:34.592Z,100111.91
2023-04-21T19:43:04.830Z,100112.66
2023-04-21T19:45:34.836Z,100108.06
2023-04-21T19:48:03.300Z,100105.09
2023-04-21T19:50:31.967Z,100107.91
2023-04-21T19:53:00.486Z,100107.63
2023-04-21T19:55:29.299Z,100108.22
2023-04-21T19:57:58.451Z,100092.84
2023-04-21T20:00:27.230Z,100109.78
2023-04-21T20:02:57.326Z,100095.25
2023-04-21T20:05:25.903Z,100103.28
2023-04-21T20:07:54.465Z,100103.84
2023-04-21T20:10:24.613Z,100103.38
2023-04-21T20:12:53.082Z,100100.00
2023-04-21T20:15:22.897Z,100103.22
2023-04-21T20:17:51.457Z,100089.41
2023-04-21T20:20:21.840Z,100101.75
2023-04-21T20:22:50.600Z,100107.03
2023-04-21T20:25:19.296Z,100113.28
2023-04-21T20:27:48.121Z,100109.03
2023-04-21T20:30:16.616Z,100109.94
2023-04-21T20:32:45.202Z,100115.56
2023-04-21T20:35:16.841Z,100101.94
2023-04-21T20:37:47.520Z,100110.66
2023-04-21T20:40:16.052Z,100108.25
2023-04-21T20:42:45.250Z,100110.84
2023-04-21T20:45:14.178Z,100122.38
2023-04-21T20:47:43.101Z,100115.94
2023-04-21T20:50:12.047Z,100115.00
2023-04-21T20:52:41.125Z,100127.06
2023-04-21T20:55:12.523Z,100116.59
2023-04-21T20:57:41.125Z,100110.66
2023-04-21T21:00:12.487Z,100117.81
2023-04-21T21:02:41.502Z,100118.38
2023-04-21T21:05:10.477Z,100119.88
2023-04-21T21:07:39.393Z,100113.59
2023-04-21T21:10:11.155Z,100122.97
2023-04-21T21:12:41.156Z,100122.19
2023-04-21T21:15:10.456Z,100120.91
2023-04-21T21:17:39.152Z,100114.78
2023-04-21T21:20:09.062Z,100118.13
2023-04-21T21:22:37.469Z,100118.19
2023-04-21T21:25:06.704Z,100121.91
2023-04-21T21:27:35.231Z,100114.94
2023-04-21T21:30:05.947Z,100112.13
2023-04-21T21:32:34.776Z,100114.81
2023-04-21T21:35:03.338Z,100116.38
2023-04-21T21:37:31.945Z,100117.88
2023-04-21T21:40:01.094Z,100122.38
2023-04-21T21:42:30.024Z,100123.72
2023-04-21T21:44:58.548Z,100117.06
2023-04-21T21:47:28.952Z,100121.06
2023-04-21T21:49:59.140Z,100117.09
2023-04-21T21:52:28.913Z,100123.88
2023-04-21T21:54:58.649Z,100122.72
2023-04-21T21:57:27.631Z,100119.38
2023-04-21T21:59:56.429Z,100130.72
2023-04-21T22:02:25.215Z,100124.41
2023-04-21T22:04:55.823Z,100129.41
2023-04-21T22:07:25.311Z,100126.59
2023-04-21T22:09:53.943Z,100116.31
2023-04-21T22:12:22.401Z,100127.13
2023-04-21T22:14:50.876Z,100130.78
2023-04-21T22:17:19.467Z,100130.59
2023-04-21T22:19:48.005Z,100128.78
2023-04-21T22:22:18.065Z,100126.44
2023-04-21T22:24:46.709Z,100120.13
2023-04-21T22:27:15.300Z,100125.13
2023-04-21T22:29:43.784Z,100123.31
2023-04-21T22:32:12.410Z,100121.13
2023-04-21T22:34:41.061Z,100124.97
2023-04-21T22:37:09.751Z,100120.97
2023-04-21T22:39:40.412Z,100116.34
2023-04-21T22:42:09.164Z,100117.00
2023-04-21T22:44:37.836Z,100125.63
2023-04-21T22:47:06.753Z,100120.78
2023-04-21T22:49:36.974Z,100116.78
2023-04-21T22:52:05.837Z,100123.41
2023-04-21T22:54:34.296Z,100117.06
2023-04-21T22:57:04.249Z,100116.88
2023-04-21T22:59:32.696Z,100116.72
2023-04-21T23:02:01.889Z,100118.03
2023-04-21T23:04:30.369Z,100123.00
2023-04-21T23:07:05.909Z,100118.34
2023-04-21T23:09:34.321Z,100118.31
2023-04-21T23:12:06.319Z,100127.59
2023-04-21T23:14:34.783Z,100121.25
2023-04-21T23:17:03.400Z,100122.56
2023-04-21T23:19:32.607Z,100119.56
2023-04-21T23:22:01.193Z,100112.25
2023-04-21T23:24:29.875Z,100114.53
2023-04-21T23:26:58.826Z,100105.69
2023-04-21T23:29:28.653Z,100111.19
2023-04-21T23:31:57.312Z,100115.13
2023-04-21T23:34:26.597Z,100104.16
2023-04-21T23:36:55.169Z,100116.91
2023-04-21T23:39:24.068Z,100108.72
2023-04-21T23:41:52.647Z,100104.72
2023-04-21T23:44:21.421Z,100106.19
2023-04-21T23:46:51.854Z,100107.63
2023-04-21T23:49:20.310Z,100107.97
2023-04-21T23:51:48.802Z,100107.59
2023-04-21T23:54:17.874Z,100100.94
2023-04-21T23:56:46.602Z,100096.91
2023-04-21T23:59:14.941Z,100099.88
